Time;durP1;ratioP1;P1;durP2;ratioP2;P2;SDS_P1;SDS_P2;PMS_P1;PMS_P2;Temp;Humidity;BMP_temperature;BMP_pressure;BME280_temperature;BME280_humidity;BME280_pressure;Samples;Min_cycle;Max_cycle;Signal;HPM_P1;HPM_P2
2024/02/14 00:00:04;;;;;;;12.25;5.45;;;9.60;99.90;;;;;;10092275;28;20583;-65
2024/02/14 00:04:55;;;;;;;5.90;4.03;;;9.60;99.90;;;;;;10084542;28;20035;-65
2024/02/14 00:09:46;;;;;;;8.95;5.50;;;9.60;99.90;;;;;;10081855;28;20478;-65
2024/02/14 00:14:37;;;;;;;11.98;6.75;;;9.50;99.90;;;;;;10082997;28;20109;-65
2024/02/14 00:19:28;;;;;;;14.95;8.55;;;9.50;99.90;;;;;;10083520;28;20445;-65
2024/02/14 00:24:18;;;;;;;11.07;7.85;;;9.50;99.90;;;;;;10078307;28;20186;-65
2024/02/14 00:29:09;;;;;;;7.72;4.32;;;9.50;99.90;;;;;;10078880;28;20045;-64
2024/02/14 00:34:00;;;;;;;5.78;3.40;;;9.50;99.90;;;;;;10079880;28;20037;-65
2024/02/14 00:38:51;;;;;;;5.40;3.50;;;9.60;99.90;;;;;;10077383;28;20108;-66
2024/02/14 00:43:41;;;;;;;6.78;4.63;;;9.50;99.90;;;;;;10081782;28;20446;-65
2024/02/14 00:48:32;;;;;;;9.10;6.15;;;9.50;99.90;;;;;;10095907;28;20021;-65
2024/02/14 00:53:23;;;;;;;10.50;7.47;;;9.60;99.90;;;;;;10094319;28;20433;-66
2024/02/14 00:58:14;;;;;;;15.43;8.52;;;9.50;99.90;;;;;;10095251;28;20063;-66
2024/02/14 01:03:06;;;;;;;14.90;8.98;;;9.50;99.90;;;;;;10095070;28;20044;-64
2024/02/14 01:07:57;;;;;;;14.55;8.18;;;9.50;99.90;;;;;;10097117;28;20029;-66
2024/02/14 01:12:48;;;;;;;13.13;7.82;;;9.50;99.90;;;;;;10094959;28;20037;-65
2024/02/14 01:17:38;;;;;;;10.25;6.07;;;9.50;99.90;;;;;;10095461;28;20017;-65
2024/02/14 01:22:29;;;;;;;7.13;4.88;;;9.50;99.90;;;;;;10089998;28;20098;-64
2024/02/14 01:27:22;;;;;;;9.15;5.40;;;9.50;99.90;;;;;;10094374;28;20395;-64
2024/02/14 01:32:13;;;;;;;6.88;4.05;;;9.60;99.90;;;;;;10076496;28;20044;-66
2024/02/14 01:37:03;;;;;;;5.13;3.20;;;9.60;99.90;;;;;;10078567;28;20025;-64
2024/02/14 01:41:54;;;;;;;5.93;2.47;;;9.60;99.90;;;;;;10103014;28;20036;-65
2024/02/14 01:46:45;;;;;;;5.43;2.90;;;9.70;99.90;;;;;;10102102;28;20028;-65
2024/02/14 01:51:36;;;;;;;5.30;2.65;;;9.60;99.90;;;;;;10100365;28;20063;-66
2024/02/14 01:56:27;;;;;;;3.05;1.95;;;9.60;99.90;;;;;;10093517;28;20032;-65
2024/02/14 02:01:18;;;;;;;10.23;2.90;;;9.60;99.90;;;;;;10100930;28;20040;-66
2024/02/14 02:06:09;;;;;;;4.72;3.08;;;9.70;99.90;;;;;;10100854;28;20320;-66
2024/02/14 02:11:00;;;;;;;3.55;2.17;;;9.70;99.90;;;;;;10103771;28;20045;-64
2024/02/14 02:15:52;;;;;;;2.65;2.22;;;9.70;99.90;;;;;;10100798;28;20025;-65
2024/02/14 02:20:42;;;;;;;3.08;2.20;;;9.70;99.90;;;;;;10096158;28;20039;-64
2024/02/14 02:25:33;;;;;;;2.60;1.92;;;9.70;99.90;;;;;;10099861;28;20048;-64
2024/02/14 02:30:25;;;;;;;3.80;2.05;;;9.70;99.90;;;;;;10097709;28;20383;-66
2024/02/14 02:35:15;;;;;;;3.85;2.08;;;9.70;99.90;;;;;;10099867;28;20103;-65
2024/02/14 02:40:09;;;;;;;5.88;2.50;;;9.60;99.90;;;;;;10099711;28;20025;-64
2024/02/14 02:45:02;;;;;;;4.90;2.00;;;9.60;99.90;;;;;;10100162;28;20509;-67
2024/02/14 02:49:52;;;;;;;4.68;2.20;;;9.60;99.90;;;;;;10099752;28;20617;-66
2024/02/14 02:54:43;;;;;;;3.17;1.80;;;9.70;99.90;;;;;;10098687;28;20079;-65
2024/02/14 02:59:35;;;;;;;3.17;1.73;;;9.60;99.90;;;;;;10099243;28;20070;-66
2024/02/14 03:04:26;;;;;;;4.57;1.60;;;9.70;99.90;;;;;;10095261;28;20269;-65
2024/02/14 03:09:17;;;;;;;3.22;2.10;;;9.70;99.90;;;;;;10098782;28;20060;-65
2024/02/14 03:14:08;;;;;;;3.28;1.75;;;9.70;99.90;;;;;;10092203;28;20025;-66
2024/02/14 03:19:00;;;;;;;5.18;2.03;;;9.70;99.90;;;;;;10097671;28;20493;-65
2024/02/14 03:23:53;;;;;;;3.15;1.77;;;9.60;99.90;;;;;;10071083;28;20178;-65
2024/02/14 03:28:44;;;;;;;7.47;2.35;;;9.60;99.90;;;;;;10097843;28;20044;-65
2024/02/14 03:33:35;;;;;;;2.70;1.50;;;9.60;99.90;;;;;;10097645;28;20041;-66
2024/02/14 03:38:27;;;;;;;2.95;1.80;;;9.60;99.90;;;;;;10079899;28;20465;-64
2024/02/14 03:43:18;;;;;;;4.18;1.50;;;9.60;99.90;;;;;;10096764;28;20147;-66
2024/02/14 03:48:11;;;;;;;3.75;1.65;;;9.60;99.90;;;;;;10096984;28;20123;-66
2024/02/14 03:53:03;;;;;;;2.80;1.52;;;9.60;99.90;;;;;;10095120;28;20139;-66
2024/02/14 03:57:54;;;;;;;3.55;1.77;;;9.60;99.90;;;;;;10097170;28;20021;-65
2024/02/14 04:02:44;;;;;;;4.28;1.90;;;9.60;99.90;;;;;;10095790;28;20032;-65
2024/02/14 04:07:36;;;;;;;6.28;1.95;;;9.60;99.90;;;;;;10096255;28;20215;-64
2024/02/14 04:12:27;;;;;;;5.65;1.63;;;9.60;99.90;;;;;;10090652;28;20459;-64
2024/02/14 04:17:18;;;;;;;2.92;1.85;;;9.60;99.90;;;;;;10103642;28;20036;-65
2024/02/14 04:22:09;;;;;;;4.18;1.50;;;9.70;99.90;;;;;;10096051;28;20041;-64
2024/02/14 04:27:02;;;;;;;3.97;1.70;;;9.60;99.90;;;;;;10095964;28;20068;-65
2024/02/14 04:31:53;;;;;;;2.28;1.40;;;9.70;99.90;;;;;;10095720;28;20128;-65
2024/02/14 04:36:43;;;;;;;2.25;1.30;;;9.70;99.90;;;;;;10094892;28;20108;-65
2024/02/14 04:41:37;;;;;;;3.75;1.50;;;9.60;99.90;;;;;;10087001;28;20029;-65
2024/02/14 04:46:27;;;;;;;3.45;1.63;;;9.60;99.90;;;;;;10096750;28;20025;-65
2024/02/14 04:51:18;;;;;;;3.35;1.58;;;9.60;99.90;;;;;;10067508;28;20052;-66
2024/02/14 04:56:09;;;;;;;2.92;1.60;;;9.60;99.90;;;;;;10089724;28;20168;-65
2024/02/14 05:01:01;;;;;;;3.25;2.00;;;9.60;99.90;;;;;;10094826;28;20021;-66
2024/02/14 05:05:52;;;;;;;1.77;1.40;;;9.60;99.90;;;;;;10094352;28;20035;-64
2024/02/14 05:10:42;;;;;;;4.57;1.33;;;9.70;99.90;;;;;;10093914;28;20029;-65
2024/02/14 05:15:35;;;;;;;4.35;1.98;;;9.70;99.90;;;;;;10102207;28;20095;-65
2024/02/14 05:20:25;;;;;;;3.15;1.50;;;9.70;99.90;;;;;;10102928;28;20090;-64
2024/02/14 05:25:16;;;;;;;5.43;1.80;;;9.80;99.90;;;;;;10102044;28;20579;-64
2024/02/14 05:30:09;;;;;;;4.03;1.45;;;9.70;99.90;;;;;;10102356;28;20442;-67
2024/02/14 05:35:00;;;;;;;1.95;1.10;;;9.70;99.90;;;;;;10101700;28;20191;-64
2024/02/14 05:39:50;;;;;;;2.15;1.20;;;9.70;99.90;;;;;;10084076;28;20108;-65
2024/02/14 05:44:42;;;;;;;2.33;1.15;;;9.70;99.90;;;;;;10099915;28;20040;-65
2024/02/14 05:49:33;;;;;;;3.40;1.25;;;9.80;99.90;;;;;;10101710;28;20021;-65
2024/02/14 05:54:25;;;;;;;2.67;1.50;;;9.80;99.90;;;;;;10103939;28;20045;-65
2024/02/14 05:59:16;;;;;;;3.20;1.33;;;9.70;99.90;;;;;;10101363;28;20025;-65
2024/02/14 06:04:06;;;;;;;3.00;1.35;;;9.70;99.90;;;;;;10097764;28;20024;-65
2024/02/14 06:08:57;;;;;;;4.15;1.30;;;9.70;99.90;;;;;;10106269;28;20017;-65
2024/02/14 06:13:48;;;;;;;3.22;1.45;;;9.80;99.90;;;;;;10099947;28;20529;-65
2024/02/14 06:18:39;;;;;;;1.52;1.33;;;9.80;99.90;;;;;;10100670;28;20456;-64
2024/02/14 06:23:30;;;;;;;1.83;1.20;;;9.70;99.90;;;;;;10080281;28;20029;-66
2024/02/14 06:28:21;;;;;;;2.33;1.30;;;9.80;99.90;;;;;;10100161;28;20095;-67
2024/02/14 06:33:12;;;;;;;3.03;1.67;;;9.80;99.90;;;;;;10099596;28;20041;-67
2024/02/14 06:38:02;;;;;;;2.13;1.35;;;9.80;99.90;;;;;;10103381;28;20022;-66
2024/02/14 06:42:54;;;;;;;2.58;1.35;;;9.80;99.90;;;;;;10099997;28;20044;-65
2024/02/14 06:47:45;;;;;;;3.20;1.13;;;9.90;99.90;;;;;;10099570;28;20037;-65
2024/02/14 06:52:35;;;;;;;4.07;1.35;;;9.90;99.90;;;;;;10102045;28;20502;-66
2024/02/14 06:57:26;;;;;;;2.97;1.63;;;9.90;99.90;;;;;;10099612;28;20500;-65
2024/02/14 07:02:17;;;;;;;3.70;1.98;;;9.90;99.90;;;;;;10094995;28;20029;-64
2024/02/14 07:07:08;;;;;;;1.80;1.20;;;9.90;99.90;;;;;;10081254;28;20108;-65
2024/02/14 07:11:58;;;;;;;3.03;1.30;;;9.90;99.90;;;;;;10094540;28;20051;-65
2024/02/14 07:16:49;;;;;;;5.18;1.90;;;9.90;99.90;;;;;;10098575;28;20118;-64
2024/02/14 07:21:40;;;;;;;2.47;1.63;;;9.90;99.90;;;;;;10098147;28;20029;-65
2024/02/14 07:26:30;;;;;;;3.15;1.73;;;9.90;99.90;;;;;;10079168;28;20498;-65
2024/02/14 07:31:21;;;;;;;2.25;1.50;;;10.00;99.90;;;;;;10098308;28;20037;-64
2024/02/14 07:36:11;;;;;;;2.33;1.42;;;10.00;99.90;;;;;;10097840;28;20485;-65
2024/02/14 07:41:02;;;;;;;4.05;1.27;;;9.90;99.90;;;;;;10099227;28;20033;-66
2024/02/14 07:45:53;;;;;;;2.47;1.65;;;10.00;99.90;;;;;;10106823;28;20043;-66
2024/02/14 07:50:44;;;;;;;1.90;1.40;;;10.00;99.90;;;;;;10089911;28;20530;-66
2024/02/14 07:55:34;;;;;;;3.50;1.70;;;10.00;99.90;;;;;;10096855;28;20033;-67
2024/02/14 08:00:25;;;;;;;4.15;1.55;;;10.00;99.90;;;;;;10093402;28;20025;-65
2024/02/14 08:05:16;;;;;;;3.00;1.48;;;10.00;99.90;;;;;;10097694;28;20445;-66
2024/02/14 08:10:07;;;;;;;3.67;1.35;;;10.10;99.90;;;;;;10096531;28;20040;-65
2024/02/14 08:14:57;;;;;;;3.75;1.98;;;10.10;99.90;;;;;;10099624;28;20502;-67
2024/02/14 08:19:48;;;;;;;5.72;2.53;;;10.20;99.90;;;;;;10096338;28;20383;-66
2024/02/14 08:24:39;;;;;;;4.50;2.30;;;10.20;99.90;;;;;;10095836;28;20509;-66
2024/02/14 08:29:29;;;;;;;3.30;1.83;;;10.30;99.90;;;;;;10090698;28;20070;-66
2024/02/14 08:34:20;;;;;;;4.93;2.10;;;10.40;99.90;;;;;;10095785;28;20546;-65
2024/02/14 08:39:11;;;;;;;3.17;1.80;;;10.40;99.90;;;;;;10095778;28;20031;-72
2024/02/14 08:44:01;;;;;;;4.05;1.60;;;10.40;99.90;;;;;;10099059;28;20075;-68
2024/02/14 08:48:53;;;;;;;3.25;1.80;;;10.50;99.90;;;;;;10086943;28;20399;-68
2024/02/14 08:53:44;;;;;;;3.33;1.73;;;10.50;99.90;;;;;;10084205;28;20482;-67
2024/02/14 08:58:35;;;;;;;4.05;1.40;;;10.60;99.90;;;;;;10086987;28;20057;-67
2024/02/14 09:03:26;;;;;;;4.53;1.70;;;10.50;99.90;;;;;;10085879;28;20039;-67
2024/02/14 09:08:17;;;;;;;6.10;2.17;;;10.60;99.90;;;;;;10086482;28;20036;-68
2024/02/14 09:13:07;;;;;;;4.10;1.75;;;10.70;99.90;;;;;;10082795;28;20033;-66
2024/02/14 09:17:59;;;;;;;2.50;1.67;;;10.70;99.90;;;;;;10093098;28;20029;-67
2024/02/14 09:22:50;;;;;;;3.55;1.30;;;10.80;99.90;;;;;;10095005;28;20051;-66
2024/02/14 09:27:41;;;;;;;5.75;1.52;;;10.90;99.90;;;;;;10094925;28;20530;-67
2024/02/14 09:32:31;;;;;;;1.98;1.08;;;10.90;99.90;;;;;;10094276;28;20059;-68
2024/02/14 09:37:23;;;;;;;2.35;1.08;;;10.90;99.90;;;;;;10095020;28;20044;-67
2024/02/14 09:42:16;;;;;;;2.45;1.50;;;11.00;99.90;;;;;;10076933;28;20546;-68
2024/02/14 09:47:09;;;;;;;1.90;0.82;;;11.10;99.90;;;;;;10087961;28;20021;-67
2024/02/14 09:52:05;;;;;;;3.33;1.40;;;11.10;99.90;;;;;;10082191;28;20053;-67
2024/02/14 09:56:57;;;;;;;4.25;1.55;;;11.10;99.90;;;;;;10083009;28;20029;-66
2024/02/14 10:01:49;;;;;;;4.10;1.65;;;11.10;99.90;;;;;;10100237;28;20075;-66
2024/02/14 10:06:40;;;;;;;3.28;1.40;;;11.20;99.90;;;;;;10098395;28;20021;-66
2024/02/14 10:11:33;;;;;;;2.88;1.30;;;11.20;99.90;;;;;;10097431;28;20052;-65
2024/02/14 10:16:26;;;;;;;4.63;1.70;;;11.30;99.90;;;;;;10101446;28;20021;-69
2024/02/14 10:21:19;;;;;;;2.92;1.42;;;11.30;99.90;;;;;;10100988;28;20040;-68
2024/02/14 10:26:11;;;;;;;3.70;1.90;;;11.50;99.90;;;;;;10100941;28;20128;-68
2024/02/14 10:31:01;;;;;;;2.35;1.35;;;11.50;99.90;;;;;;10101225;28;20037;-69
2024/02/14 10:35:54;;;;;;;2.00;1.27;;;11.60;99.90;;;;;;10100936;28;20090;-69
2024/02/14 10:40:47;;;;;;;2.42;1.48;;;11.60;99.90;;;;;;10101346;28;20033;-67
2024/02/14 10:45:39;;;;;;;1.88;1.23;;;11.70;99.90;;;;;;10093105;28;20021;-69
2024/02/14 10:50:34;;;;;;;3.10;1.38;;;11.70;99.90;;;;;;10099828;28;20056;-68
2024/02/14 10:55:30;;;;;;;2.75;1.17;;;11.80;99.90;;;;;;10105892;28;20483;-68
2024/02/14 11:00:21;;;;;;;;;;;11.90;99.90;;;;;;10099759;28;20063;-66
2024/02/14 11:05:14;;;;;;;2.17;1.10;;;12.00;99.90;;;;;;10093052;28;19909;-69
2024/02/14 11:10:08;;;;;;;2.53;1.23;;;12.00;99.90;;;;;;10098639;28;20025;-67
2024/02/14 11:15:00;;;;;;;4.45;1.67;;;12.10;99.90;;;;;;10098033;28;20372;-66
2024/02/14 11:19:51;;;;;;;2.38;1.17;;;12.10;99.90;;;;;;10099189;28;20082;-66
2024/02/14 11:24:45;;;;;;;1.98;1.20;;;12.20;99.90;;;;;;10095950;28;20020;-68
2024/02/14 11:29:35;;;;;;;1.60;0.98;;;12.20;99.90;;;;;;10085559;28;20099;-70
2024/02/14 11:34:33;;;;;;;1.48;0.90;;;12.30;99.90;;;;;;10089309;28;20037;-64
2024/02/14 11:39:23;;;;;;;2.72;1.90;;;12.30;99.90;;;;;;10092844;28;20037;-65
2024/02/14 11:44:14;;;;;;;1.70;0.95;;;12.50;99.90;;;;;;10089271;28;20028;-66
2024/02/14 11:49:05;;;;;;;7.22;1.67;;;12.50;99.90;;;;;;10094565;28;20056;-64
2024/02/14 11:54:06;;;;;;;1.73;0.82;;;12.60;99.90;;;;;;10078427;28;20402;-65
2024/02/14 11:58:58;;;;;;;1.48;1.08;;;12.70;99.90;;;;;;10096801;28;20025;-64
2024/02/14 12:03:48;;;;;;;1.00;0.70;;;12.70;99.90;;;;;;10097432;28;20102;-65
2024/02/14 12:08:40;;;;;;;2.10;1.05;;;12.80;99.90;;;;;;10076216;28;20672;-66
2024/02/14 12:13:32;;;;;;;0.90;0.75;;;12.80;99.90;;;;;;10096634;28;20043;-66
2024/02/14 12:18:22;;;;;;;2.20;0.65;;;13.00;99.90;;;;;;10078960;28;20020;-66
2024/02/14 12:23:18;;;;;;;1.30;0.55;;;13.00;99.90;;;;;;10097808;28;20028;-65
2024/02/14 12:28:13;;;;;;;1.00;0.80;;;13.10;99.90;;;;;;10095410;28;20123;-66
2024/02/14 12:33:09;;;;;;;1.30;0.90;;;13.20;99.90;;;;;;10094354;28;20077;-67
2024/02/14 12:37:59;;;;;;;2.25;1.00;;;13.30;99.90;;;;;;10095335;28;20025;-66
2024/02/14 12:42:50;;;;;;;2.35;0.85;;;13.30;99.90;;;;;;10088302;28;20106;-67
2024/02/14 12:47:43;;;;;;;2.47;0.93;;;13.50;99.90;;;;;;10089326;28;20119;-67
2024/02/14 12:52:34;;;;;;;2.85;1.10;;;13.70;99.90;;;;;;10089857;28;20514;-66
2024/02/14 12:57:25;;;;;;;1.90;1.20;;;13.80;99.90;;;;;;10096114;28;20670;-66
2024/02/14 13:02:16;;;;;;;1.40;0.80;;;13.80;99.90;;;;;;10084912;28;20090;-67
2024/02/14 13:07:08;;;;;;;1.73;0.68;;;13.90;99.90;;;;;;10063658;28;20036;-65
2024/02/14 13:11:59;;;;;;;0.55;0.52;;;13.90;99.90;;;;;;10094493;28;20044;-66
2024/02/14 13:16:50;;;;;;;1.42;0.77;;;13.90;99.90;;;;;;10094861;28;20040;-66
2024/02/14 13:21:45;;;;;;;0.85;0.60;;;13.90;99.90;;;;;;10094688;28;20674;-66
2024/02/14 13:26:35;;;;;;;1.48;0.80;;;13.70;99.90;;;;;;10093467;28;20628;-67
2024/02/14 13:31:26;;;;;;;2.97;1.17;;;13.70;99.90;;;;;;10094728;28;20041;-68
2024/02/14 13:36:17;;;;;;;3.75;1.00;;;13.80;99.90;;;;;;10099761;28;20037;-67
2024/02/14 13:41:07;;;;;;;0.88;0.65;;;13.80;99.90;;;;;;10075103;28;20118;-65
2024/02/14 13:45:58;;;;;;;1.10;0.50;;;13.90;99.90;;;;;;10087571;28;20029;-69
2024/02/14 13:50:49;;;;;;;1.50;0.90;;;13.90;99.90;;;;;;10088078;28;20107;-66
2024/02/14 13:55:40;;;;;;;2.03;0.80;;;14.10;99.90;;;;;;10086602;28;20095;-65
2024/02/14 14:00:30;;;;;;;0.95;0.75;;;14.10;99.90;;;;;;10093393;28;20035;-69
2024/02/14 14:05:21;;;;;;;1.88;1.00;;;14.10;99.90;;;;;;10089100;28;20049;-67
2024/02/14 14:10:12;;;;;;;0.93;0.87;;;14.20;99.90;;;;;;10089647;28;20583;-67
2024/02/14 14:15:04;;;;;;;1.23;0.70;;;14.40;99.90;;;;;;10098522;28;20067;-66
2024/02/14 14:19:55;;;;;;;1.25;0.80;;;14.40;99.90;;;;;;10100412;28;20063;-67
2024/02/14 14:24:45;;;;;;;1.20;0.60;;;14.30;99.90;;;;;;10089341;28;20075;-66
2024/02/14 14:29:36;;;;;;;0.88;0.50;;;14.30;99.90;;;;;;10068872;28;20473;-67
2024/02/14 14:34:29;;;;;;;1.77;0.60;;;14.20;99.90;;;;;;10091443;28;20584;-67
2024/02/14 14:39:20;;;;;;;1.60;0.47;;;14.20;99.90;;;;;;10100216;28;20021;-68
2024/02/14 14:44:11;;;;;;;0.98;0.60;;;14.20;99.90;;;;;;10098963;28;20040;-65
2024/02/14 14:49:02;;;;;;;1.02;0.70;;;14.20;99.90;;;;;;10100024;28;20505;-69
2024/02/14 14:53:53;;;;;;;1.02;0.60;;;14.10;99.90;;;;;;10086138;28;20085;-70
2024/02/14 14:58:44;;;;;;;1.33;0.88;;;14.10;99.90;;;;;;10099728;28;20077;-70
2024/02/14 15:03:35;;;;;;;0.98;0.80;;;14.10;99.90;;;;;;10099054;28;20065;-66
2024/02/14 15:08:26;;;;;;;0.63;0.57;;;14.10;99.90;;;;;;10097662;28;20033;-67
2024/02/14 15:13:17;;;;;;;1.60;0.85;;;14.10;99.90;;;;;;10095860;28;20064;-66
2024/02/14 15:18:08;;;;;;;1.13;0.70;;;14.10;99.90;;;;;;10096030;28;20483;-66
2024/02/14 15:22:58;;;;;;;2.85;1.17;;;14.10;99.90;;;;;;10095205;28;20111;-67
2024/02/14 15:27:55;;;;;;;2.95;0.60;;;14.20;99.90;;;;;;10090381;28;20120;-68
2024/02/14 15:37:55;;;;;;;2.40;1.10;;;14.10;99.90;;;;;;10097601;28;20549;-68
2024/02/14 15:42:46;;;;;;;1.42;0.60;;;14.10;99.90;;;;;;10089850;28;20659;-67
2024/02/14 15:47:36;;;;;;;0.88;0.60;;;14.10;99.90;;;;;;10102593;28;20044;-67
2024/02/14 15:52:27;;;;;;;1.25;0.60;;;14.10;99.90;;;;;;10079286;28;20076;-67
2024/02/14 15:57:18;;;;;;;1.23;0.82;;;14.10;99.90;;;;;;10095768;28;20120;-68
2024/02/14 16:02:09;;;;;;;1.42;0.73;;;14.00;99.90;;;;;;10101319;28;20029;-69
2024/02/14 16:07:00;;;;;;;2.30;0.90;;;14.10;99.90;;;;;;10091845;28;20086;-68
2024/02/14 16:11:51;;;;;;;1.90;0.98;;;14.00;99.90;;;;;;10092300;28;20454;-65
2024/02/14 16:16:41;;;;;;;1.85;0.77;;;14.00;99.90;;;;;;10096110;28;20025;-66
2024/02/14 16:21:32;;;;;;;1.83;1.02;;;14.10;99.90;;;;;;10095450;28;20112;-67
2024/02/14 16:26:23;;;;;;;1.13;0.80;;;14.00;99.90;;;;;;10096655;28;20130;-67
2024/02/14 16:31:14;;;;;;;1.50;0.80;;;14.10;99.90;;;;;;10098939;28;20024;-67
2024/02/14 16:36:05;;;;;;;1.52;0.82;;;14.00;99.90;;;;;;10097439;28;20112;-65
2024/02/14 16:40:57;;;;;;;2.30;0.98;;;14.00;99.90;;;;;;10096359;28;20033;-67
2024/02/14 16:45:47;;;;;;;3.78;0.82;;;14.00;99.90;;;;;;10108149;28;20028;-66
2024/02/14 16:50:38;;;;;;;2.97;0.77;;;14.00;99.90;;;;;;10096100;28;20032;-68
2024/02/14 16:55:29;;;;;;;2.25;0.93;;;14.00;99.90;;;;;;10092096;28;20061;-67
2024/02/14 17:00:20;;;;;;;1.70;1.00;;;14.00;99.90;;;;;;10099094;28;20029;-65
2024/02/14 17:05:11;;;;;;;1.67;1.13;;;14.00;99.90;;;;;;10095766;28;20051;-69
2024/02/14 17:10:02;;;;;;;1.42;0.90;;;14.00;99.90;;;;;;10100679;28;20032;-66
2024/02/14 17:14:53;;;;;;;1.40;0.70;;;14.00;99.90;;;;;;10105435;28;20032;-67
2024/02/14 17:19:44;;;;;;;2.10;1.27;;;14.00;99.90;;;;;;10095837;28;21350;-65
2024/02/14 17:24:34;;;;;;;2.70;2.05;;;14.00;99.90;;;;;;10089587;28;20108;-65
2024/02/14 17:29:25;;;;;;;3.95;1.65;;;14.00;99.90;;;;;;10094333;28;20127;-64
2024/02/14 17:34:16;;;;;;;2.33;1.42;;;14.00;99.90;;;;;;10080882;28;20437;-71
2024/02/14 17:39:07;;;;;;;3.90;1.20;;;14.00;99.90;;;;;;10097322;28;20041;-64
2024/02/14 17:44:01;;;;;;;3.22;1.50;;;14.00;99.90;;;;;;10095440;28;20028;-67
2024/02/14 17:48:52;;;;;;;4.18;1.52;;;14.00;99.90;;;;;;10098790;28;20037;-66
2024/02/14 17:53:43;;;;;;;3.67;1.65;;;14.00;99.90;;;;;;10094441;28;20112;-68
2024/02/14 17:58:36;;;;;;;3.55;1.63;;;14.00;99.90;;;;;;10092959;28;20028;-63
2024/02/14 18:03:27;;;;;;;8.05;2.83;;;14.00;99.90;;;;;;10099355;28;20040;-64
2024/02/14 18:08:17;;;;;;;2.95;1.50;;;14.00;99.90;;;;;;10092062;28;20159;-65
2024/02/14 18:13:08;;;;;;;2.60;1.60;;;13.90;99.90;;;;;;10095195;28;20581;-67
2024/02/14 18:17:59;;;;;;;1.65;1.48;;;14.00;99.90;;;;;;10093098;28;20047;-66
2024/02/14 18:22:50;;;;;;;6.95;2.90;;;14.00;99.90;;;;;;10092400;28;20025;-66
2024/02/14 18:27:41;;;;;;;5.68;2.80;;;14.00;99.90;;;;;;10093005;28;20068;-64
2024/02/14 18:32:32;;;;;;;3.40;1.95;;;14.00;99.90;;;;;;10092835;28;20056;-63
2024/02/14 18:37:24;;;;;;;3.15;1.73;;;14.00;99.90;;;;;;10105403;28;20063;-65
2024/02/14 18:42:15;;;;;;;2.50;1.67;;;14.00;99.90;;;;;;10102494;28;20595;-63
2024/02/14 18:47:05;;;;;;;3.75;1.70;;;14.00;99.90;;;;;;10095807;28;20094;-65
2024/02/14 18:51:56;;;;;;;4.20;2.00;;;14.00;99.90;;;;;;10092078;28;20033;-66
2024/02/14 18:56:47;;;;;;;4.85;2.08;;;14.00;99.90;;;;;;10101229;28;20075;-68
2024/02/14 19:01:38;;;;;;;5.40;1.80;;;14.00;99.90;;;;;;10092859;28;20486;-66
2024/02/14 19:06:30;;;;;;;6.00;2.28;;;14.00;99.90;;;;;;10090200;28;20030;-65
2024/02/14 19:11:21;;;;;;;4.88;2.33;;;14.00;99.90;;;;;;10089295;28;20033;-68
2024/02/14 19:16:12;;;;;;;3.97;2.45;;;14.00;99.90;;;;;;10095599;28;20036;-67
2024/02/14 19:21:02;;;;;;;5.35;3.67;;;14.00;99.90;;;;;;10098966;28;20040;-69
2024/02/14 19:25:54;;;;;;;3.47;2.28;;;14.00;99.90;;;;;;10093256;28;20053;-66
2024/02/14 19:30:45;;;;;;;3.20;1.70;;;14.00;99.90;;;;;;10095195;28;20052;-64
2024/02/14 19:35:36;;;;;;;3.15;1.80;;;14.00;99.90;;;;;;10086394;28;20379;-67
2024/02/14 19:40:26;;;;;;;3.65;1.63;;;13.90;99.90;;;;;;10097854;28;20046;-66
2024/02/14 19:45:17;;;;;;;4.40;1.92;;;14.00;99.90;;;;;;10090938;28;20398;-66
2024/02/14 19:50:09;;;;;;;7.68;3.38;;;14.00;99.90;;;;;;10086515;28;20082;-71
2024/02/14 19:55:02;;;;;;;4.85;2.55;;;14.00;99.90;;;;;;10086870;28;20046;-73
2024/02/14 19:59:53;;;;;;;3.67;1.55;;;14.00;99.90;;;;;;10093791;28;20145;-68
2024/02/14 20:04:44;;;;;;;3.75;1.80;;;13.90;99.90;;;;;;10087242;28;20173;-68
2024/02/14 20:09:35;;;;;;;6.05;2.10;;;13.90;99.90;;;;;;10096606;28;20449;-69
2024/02/14 20:14:25;;;;;;;2.78;1.90;;;13.90;99.90;;;;;;10089172;28;20037;-66
2024/02/14 20:19:16;;;;;;;4.45;1.63;;;13.90;99.90;;;;;;10065968;28;20029;-68
2024/02/14 20:24:09;;;;;;;4.75;2.63;;;14.00;99.90;;;;;;10091466;28;20048;-67
2024/02/14 20:29:00;;;;;;;7.00;2.70;;;14.00;99.90;;;;;;10086092;28;20041;-69
2024/02/14 20:33:50;;;;;;;4.25;2.30;;;14.00;99.90;;;;;;10092563;28;20453;-67
2024/02/14 20:38:41;;;;;;;3.67;2.05;;;13.90;99.90;;;;;;10095364;28;20090;-67
2024/02/14 20:43:32;;;;;;;4.25;1.77;;;13.90;99.90;;;;;;10087346;28;20044;-70
2024/02/14 20:48:24;;;;;;;3.28;1.73;;;13.90;99.90;;;;;;10071295;28;20051;-64
2024/02/14 20:53:14;;;;;;;41.53;24.40;;;13.90;99.90;;;;;;10086859;28;20041;-65
2024/02/14 20:58:06;;;;;;;71.95;39.45;;;14.10;99.90;;;;;;10088801;28;20013;-64
2024/02/14 21:02:57;;;;;;;11.52;6.20;;;14.20;99.90;;;;;;10072635;28;20035;-66
2024/02/14 21:07:47;;;;;;;4.85;2.92;;;14.10;99.90;;;;;;10090937;28;20031;-73
2024/02/14 21:12:38;;;;;;;7.72;2.95;;;14.10;99.90;;;;;;10087469;28;20128;-72
2024/02/14 21:17:29;;;;;;;4.43;2.08;;;13.90;99.90;;;;;;10085954;28;20017;-70
2024/02/14 21:22:19;;;;;;;5.30;2.60;;;13.90;99.90;;;;;;10089585;28;20036;-73
2024/02/14 21:27:10;;;;;;;5.28;2.55;;;13.80;99.90;;;;;;10088498;28;20127;-67
2024/02/14 21:32:01;;;;;;;4.25;2.20;;;13.80;99.90;;;;;;10065946;28;20139;-68
2024/02/14 21:36:51;;;;;;;3.92;2.42;;;13.70;99.90;;;;;;10090841;28;20182;-64
2024/02/14 21:41:45;;;;;;;3.70;2.22;;;13.80;99.90;;;;;;10086845;28;20036;-67
2024/02/14 21:46:35;;;;;;;4.22;2.70;;;13.70;99.90;;;;;;10073434;28;20086;-65
2024/02/14 21:51:28;;;;;;;3.47;2.38;;;13.70;99.90;;;;;;10096835;28;20093;-67
2024/02/14 21:56:19;;;;;;;3.55;2.17;;;13.70;99.90;;;;;;10092839;28;20114;-66
2024/02/14 22:01:10;;;;;;;4.43;2.50;;;13.60;99.90;;;;;;10095285;28;20020;-70
2024/02/14 22:06:01;;;;;;;4.00;2.17;;;13.60;99.90;;;;;;10097858;28;20026;-68
2024/02/14 22:10:52;;;;;;;4.55;2.55;;;13.60;99.90;;;;;;10098363;28;20077;-64
2024/02/14 22:15:43;;;;;;;4.20;2.13;;;13.60;99.90;;;;;;10094727;28;20047;-66
2024/02/14 22:20:34;;;;;;;62.15;28.75;;;13.50;99.90;;;;;;10103698;28;20025;-70
2024/02/14 22:25:25;;;;;;;68.78;37.65;;;13.50;99.90;;;;;;10107194;28;20155;-67
2024/02/14 22:30:16;;;;;;;15.27;9.55;;;13.70;99.90;;;;;;10099028;28;20578;-73
2024/02/14 22:35:07;;;;;;;5.70;3.67;;;13.70;99.90;;;;;;10092582;28;20120;-63
2024/02/14 22:39:58;;;;;;;142.20;65.68;;;13.60;99.90;;;;;;10088785;28;20025;-65
2024/02/14 22:44:48;;;;;;;14.77;8.65;;;13.60;99.90;;;;;;10093413;28;20041;-63
2024/02/14 22:49:41;;;;;;;7.80;3.53;;;13.60;99.90;;;;;;10088271;28;20080;-63
2024/02/14 22:54:32;;;;;;;4.25;2.72;;;13.60;99.90;;;;;;10091255;28;20041;-64
2024/02/14 22:59:23;;;;;;;6.20;2.60;;;13.50;99.90;;;;;;10094138;28;20028;-65
2024/02/14 23:04:13;;;;;;;4.90;2.65;;;13.50;99.90;;;;;;10090838;28;20103;-67
2024/02/14 23:09:04;;;;;;;3.08;2.30;;;13.50;99.90;;;;;;10092853;28;20016;-69
2024/02/14 23:13:55;;;;;;;3.22;1.90;;;13.50;99.90;;;;;;10098898;28;20044;-67
2024/02/14 23:18:46;;;;;;;3.08;1.77;;;13.40;99.90;;;;;;10081751;28;20036;-69
2024/02/14 23:23:37;;;;;;;5.10;1.52;;;13.40;99.90;;;;;;10094120;28;20025;-69
2024/02/14 23:28:28;;;;;;;3.65;1.88;;;13.40;99.90;;;;;;10099377;28;20052;-65
2024/02/14 23:33:19;;;;;;;2.83;1.83;;;13.30;99.90;;;;;;10098296;28;20045;-65
2024/02/14 23:38:11;;;;;;;4.72;2.03;;;13.30;99.90;;;;;;10100110;28;20475;-66
2024/02/14 23:43:03;;;;;;;3.10;1.77;;;13.30;99.90;;;;;;10085332;28;20074;-67
2024/02/14 23:47:54;;;;;;;3.70;2.70;;;13.30;99.90;;;;;;10092128;28;20090;-69
2024/02/14 23:52:45;;;;;;;3.80;2.22;;;13.20;99.90;;;;;;10093925;28;20465;-68
2024/02/14 23:57:35;;;;;;;6.35;2.25;;;13.20;99.90;;;;;;10092713;28;20067;-69
